Aviation Digital Data Service (ADDS)

Output produced by METARs form (1155 UTC 27 March 2015)
found at http://aviationweather.gov/adds/metars/
 
KSYR 271126Z 2712/2812 28008KT P6SM OVC050 
     FM271900 32007KT P6SM OVC025 
     FM280200 32007KT P6SM OVC015